createdAt,value
2022-12-19T00:00:31.395Z,5.95
2022-12-19T00:03:00.958Z,5.98
2022-12-19T00:05:29.314Z,5.96
2022-12-19T00:07:57.259Z,5.93
2022-12-19T00:10:27.121Z,5.96
2022-12-19T00:12:54.989Z,6.13
2022-12-19T00:15:23.463Z,6.18
2022-12-19T00:17:51.282Z,6.03
2022-12-19T00:20:20.633Z,6.25
2022-12-19T00:22:48.534Z,6.28
2022-12-19T00:25:27.029Z,6.23
2022-12-19T00:27:55.701Z,6.30
2022-12-19T00:30:33.950Z,6.32
2022-12-19T00:33:02.653Z,6.38
2022-12-19T00:35:32.300Z,6.43
2022-12-19T00:38:00.319Z,6.46
2022-12-19T00:40:28.158Z,6.35
2022-12-19T00:42:56.454Z,6.30
2022-12-19T00:45:26.672Z,6.55
2022-12-19T00:47:57.640Z,6.46
2022-12-19T00:50:25.486Z,6.62
2022-12-19T00:52:54.806Z,6.65
2022-12-19T00:55:23.065Z,6.64
2022-12-19T00:57:51.711Z,6.72
2022-12-19T01:00:22.569Z,6.76
2022-12-19T01:02:53.892Z,6.59
2022-12-19T01:05:21.653Z,6.82
2022-12-19T01:07:50.671Z,6.71
2022-12-19T01:10:20.182Z,6.73
2022-12-19T01:12:48.729Z,6.94
2022-12-19T01:15:18.907Z,6.91
2022-12-19T01:17:47.244Z,7.03
2022-12-19T01:20:17.576Z,7.05
2022-12-19T01:22:48.591Z,7.05
2022-12-19T01:25:17.343Z,7.11
2022-12-19T01:27:46.585Z,7.21
2022-12-19T01:30:15.420Z,7.25
2022-12-19T01:32:43.729Z,7.29
2022-12-19T01:35:20.638Z,7.26
2022-12-19T01:37:50.691Z,7.27
2022-12-19T01:40:19.049Z,7.44
2022-12-19T01:42:49.467Z,7.23
2022-12-19T01:45:34.482Z,7.55
2022-12-19T01:48:09.466Z,7.55
2022-12-19T01:50:51.433Z,7.60
2022-12-19T01:53:33.373Z,7.60
2022-12-19T01:56:08.953Z,7.68
2022-12-19T01:58:41.242Z,7.53
2022-12-19T02:01:09.531Z,7.79
2022-12-19T02:03:40.705Z,7.72
2022-12-19T02:06:10.527Z,7.76
2022-12-19T02:08:39.200Z,7.74
2022-12-19T02:11:07.148Z,7.75
2022-12-19T02:13:38.865Z,7.59
2022-12-19T02:16:22.435Z,7.94
2022-12-19T02:18:59.613Z,8.04
2022-12-19T02:21:41.835Z,7.97
2022-12-19T02:24:47.736Z,8.09
2022-12-19T02:27:39.842Z,8.16
2022-12-19T02:30:14.314Z,8.18
2022-12-19T02:33:03.716Z,8.20
2022-12-19T02:35:37.034Z,8.24
2022-12-19T02:38:16.003Z,8.23
2022-12-19T02:40:51.910Z,8.29
2022-12-19T02:43:25.653Z,8.24
2022-12-19T02:45:55.292Z,8.10
2022-12-19T02:48:25.774Z,8.24
2022-12-19T02:50:53.698Z,8.38
2022-12-19T02:53:23.583Z,8.28
2022-12-19T02:56:10.343Z,8.35
2022-12-19T02:58:51.260Z,8.46
2022-12-19T03:01:35.891Z,8.26
2022-12-19T03:04:25.019Z,8.31
2022-12-19T03:06:57.035Z,8.48
2022-12-19T03:09:38.788Z,8.32
2022-12-19T03:12:17.054Z,8.38
2022-12-19T03:14:47.648Z,8.49
2022-12-19T03:17:16.372Z,8.34
2022-12-19T03:19:48.761Z,8.47
2022-12-19T03:22:17.498Z,8.39
2022-12-19T03:24:45.411Z,8.52
2022-12-19T03:27:22.255Z,8.25
2022-12-19T03:29:55.751Z,8.48
2022-12-19T03:32:26.517Z,8.42
2022-12-19T03:35:00.603Z,8.65
2022-12-19T03:37:33.514Z,8.66
2022-12-19T03:40:04.323Z,8.37
2022-12-19T03:42:52.554Z,8.57
2022-12-19T03:45:27.523Z,8.73
2022-12-19T03:48:01.747Z,8.76
2022-12-19T03:50:40.423Z,8.51
2022-12-19T03:53:19.685Z,8.80
2022-12-19T03:55:55.096Z,8.81
2022-12-19T03:58:31.504Z,8.85
2022-12-19T04:01:01.353Z,8.69
2022-12-19T04:03:31.440Z,8.77
2022-12-19T04:06:05.651Z,8.91
2022-12-19T04:08:35.713Z,8.77
2022-12-19T04:11:10.553Z,8.96
2022-12-19T04:13:43.337Z,8.92
2022-12-19T04:16:19.724Z,8.80
2022-12-19T04:18:55.033Z,9.04
2022-12-19T04:21:32.952Z,9.07
2022-12-19T04:24:07.043Z,8.81
2022-12-19T04:26:41.002Z,9.09
2022-12-19T04:29:10.581Z,9.13
2022-12-19T04:31:40.033Z,8.86
2022-12-19T04:34:08.073Z,9.17
2022-12-19T04:36:37.956Z,9.21
2022-12-19T04:39:06.611Z,9.25
2022-12-19T04:41:34.661Z,9.29
2022-12-19T04:44:05.934Z,9.30
2022-12-19T04:46:34.218Z,9.22
2022-12-19T04:49:04.981Z,9.35
2022-12-19T04:51:32.863Z,9.37
2022-12-19T04:54:02.514Z,9.43
2022-12-19T04:56:30.404Z,9.47
2022-12-19T04:58:59.628Z,9.49
2022-12-19T05:01:27.833Z,9.41
2022-12-19T05:04:01.323Z,9.47
2022-12-19T05:06:32.573Z,9.46
2022-12-19T05:09:02.396Z,9.59
2022-12-19T05:11:32.298Z,9.61
2022-12-19T05:14:00.296Z,9.39
2022-12-19T05:16:28.206Z,9.56
2022-12-19T05:18:56.717Z,9.59
2022-12-19T05:21:25.258Z,9.66
2022-12-19T05:23:53.051Z,9.71
2022-12-19T05:26:22.583Z,9.63
2022-12-19T05:28:50.896Z,9.48
2022-12-19T05:31:21.585Z,9.77
2022-12-19T05:33:50.907Z,9.64
2022-12-19T05:36:20.155Z,9.81
2022-12-19T05:38:48.740Z,9.82
2022-12-19T05:41:20.260Z,9.74
2022-12-19T05:43:56.050Z,9.79
2022-12-19T05:46:25.485Z,9.75
2022-12-19T05:48:53.409Z,9.66
2022-12-19T05:51:21.611Z,9.72
2022-12-19T05:53:49.965Z,9.80
2022-12-19T05:56:19.529Z,9.71
2022-12-19T05:58:49.866Z,9.83
2022-12-19T06:01:20.476Z,9.88
2022-12-19T06:03:48.678Z,9.90
2022-12-19T06:06:29.861Z,9.93
2022-12-19T06:09:02.201Z,9.96
2022-12-19T06:11:30.546Z,9.81
2022-12-19T06:14:00.292Z,9.94
2022-12-19T06:16:31.069Z,9.83
2022-12-19T06:18:59.280Z,9.70
2022-12-19T06:21:27.549Z,9.99
2022-12-19T06:23:56.555Z,10.01
2022-12-19T06:26:24.974Z,10.01
2022-12-19T06:28:54.663Z,10.02
2022-12-19T06:31:26.295Z,10.02
2022-12-19T06:33:56.179Z,10.04
2022-12-19T06:36:25.377Z,10.07
2022-12-19T06:38:56.475Z,10.01
2022-12-19T06:41:42.307Z,10.10
2022-12-19T06:44:14.357Z,10.11
2022-12-19T06:46:43.950Z,9.91
2022-12-19T06:49:13.511Z,9.98
2022-12-19T06:51:41.615Z,9.84
2022-12-19T06:54:11.581Z,9.76
2022-12-19T06:56:41.315Z,10.17
2022-12-19T06:59:13.221Z,10.12
2022-12-19T07:01:53.824Z,10.16
2022-12-19T07:04:26.719Z,10.13
2022-12-19T07:06:54.511Z,10.16
2022-12-19T07:09:22.684Z,10.16
2022-12-19T07:11:50.942Z,10.22
2022-12-19T07:14:19.028Z,10.23
2022-12-19T07:16:49.823Z,10.25
2022-12-19T07:19:18.507Z,10.27
2022-12-19T07:21:46.455Z,10.27
2022-12-19T07:24:15.901Z,10.32
2022-12-19T07:26:45.177Z,10.36
2022-12-19T07:29:14.246Z,10.30
2022-12-19T07:31:41.948Z,10.38
2022-12-19T07:34:11.500Z,10.43
2022-12-19T07:36:39.221Z,10.45
2022-12-19T07:39:07.546Z,10.45
2022-12-19T07:41:38.020Z,10.43
2022-12-19T07:44:06.760Z,10.50
2022-12-19T07:46:35.562Z,10.49
2022-12-19T07:49:03.712Z,10.52
2022-12-19T07:51:33.433Z,10.53
2022-12-19T07:54:01.531Z,10.53
2022-12-19T07:56:29.767Z,10.55
2022-12-19T07:58:57.877Z,10.56
2022-12-19T08:01:28.285Z,10.44
2022-12-19T08:03:57.105Z,10.55
2022-12-19T08:06:25.102Z,10.58
2022-12-19T08:08:54.225Z,10.59
2022-12-19T08:11:27.585Z,10.62
2022-12-19T08:13:56.254Z,10.54
2022-12-19T08:16:26.674Z,10.63
2022-12-19T08:18:56.105Z,10.65
2022-12-19T08:21:25.093Z,10.65
2022-12-19T08:23:54.681Z,10.69
2022-12-19T08:26:26.417Z,10.68
2022-12-19T08:28:55.790Z,10.71
2022-12-19T08:31:25.382Z,10.74
2022-12-19T08:33:53.387Z,10.61
2022-12-19T08:36:21.168Z,10.70
2022-12-19T08:38:50.460Z,10.71
2022-12-19T08:41:20.532Z,10.78
2022-12-19T08:43:50.415Z,10.80
2022-12-19T08:46:19.255Z,10.79
2022-12-19T08:48:47.470Z,10.80
2022-12-19T08:51:17.482Z,10.78
2022-12-19T08:53:46.492Z,10.85
2022-12-19T08:56:16.644Z,10.87
2022-12-19T08:58:46.992Z,10.81
2022-12-19T09:01:19.146Z,10.91
2022-12-19T09:04:29.863Z,10.93
2022-12-19T09:06:36.657Z,10.96
2022-12-19T09:09:05.597Z,10.94
2022-12-19T09:11:33.876Z,10.99
2022-12-19T09:14:05.925Z,10.99
2022-12-19T09:16:33.679Z,10.99
2022-12-19T09:19:01.756Z,11.01
2022-12-19T09:21:30.255Z,11.06
2022-12-19T09:24:07.134Z,11.08
2022-12-19T09:26:36.435Z,11.08
2022-12-19T09:29:12.728Z,11.10
2022-12-19T09:31:48.116Z,11.09
2022-12-19T09:34:19.789Z,11.08
2022-12-19T09:36:50.417Z,11.11
2022-12-19T09:39:19.004Z,11.11
2022-12-19T09:42:05.871Z,11.13
2022-12-19T09:44:59.168Z,11.17
2022-12-19T09:47:31.854Z,11.16
2022-12-19T09:50:00.864Z,11.08
2022-12-19T09:52:34.170Z,11.17
2022-12-19T09:55:06.723Z,11.23
2022-12-19T09:57:41.913Z,11.25
2022-12-19T10:00:16.858Z,11.24
2022-12-19T10:02:51.558Z,11.26
2022-12-19T10:06:07.767Z,11.27
2022-12-19T10:08:19.119Z,11.28
2022-12-19T10:12:37.304Z,11.31
2022-12-19T10:14:02.817Z,11.31
2022-12-19T10:17:01.756Z,11.34
2022-12-19T10:19:43.917Z,11.36
2022-12-19T10:22:25.457Z,11.36
2022-12-19T10:25:13.412Z,11.38
2022-12-19T10:27:59.288Z,11.41
2022-12-19T10:30:31.199Z,11.41
2022-12-19T10:33:07.496Z,11.46
2022-12-19T10:35:44.597Z,11.50
2022-12-19T10:38:24.083Z,11.50
2022-12-19T10:40:55.744Z,11.50
2022-12-19T10:43:35.583Z,11.47
2022-12-19T10:46:14.746Z,11.59
2022-12-19T10:48:44.943Z,11.56
2022-12-19T10:51:14.660Z,11.65
2022-12-19T10:53:42.949Z,11.70
2022-12-19T10:56:24.596Z,11.73
2022-12-19T10:58:57.847Z,11.77
2022-12-19T11:01:28.523Z,11.84
2022-12-19T11:04:28.286Z,11.87
2022-12-19T11:07:19.658Z,11.93
2022-12-19T11:09:59.215Z,12.02
2022-12-19T11:16:57.576Z,12.07
2022-12-19T11:18:25.643Z,12.08
2022-12-19T11:24:36.487Z,12.17
2022-12-19T11:29:29.801Z,12.26
2022-12-19T11:29:55.843Z,12.23
2022-12-19T11:30:08.862Z,12.36
2022-12-19T11:32:43.656Z,12.41
2022-12-19T11:35:20.940Z,12.47
2022-12-19T11:37:57.221Z,12.49
2022-12-19T11:40:34.155Z,12.55
2022-12-19T11:46:01.468Z,12.59
2022-12-19T11:48:38.796Z,12.58
2022-12-19T11:51:18.194Z,12.63
2022-12-19T11:53:54.801Z,12.64
2022-12-19T11:56:25.469Z,12.61
2022-12-19T11:58:59.097Z,12.71
2022-12-19T12:01:42.731Z,12.71
2022-12-19T12:04:28.191Z,12.71
2022-12-19T12:06:59.226Z,12.75
2022-12-19T12:13:18.454Z,12.75
2022-12-19T12:22:00.155Z,12.44
2022-12-19T12:25:53.658Z,12.77
2022-12-19T12:30:58.974Z,12.74
2022-12-19T12:31:01.689Z,12.79
2022-12-19T12:31:08.851Z,12.83
2022-12-19T12:31:46.187Z,12.83
2022-12-19T12:31:50.445Z,12.78
2022-12-19T12:35:46.565Z,12.89
2022-12-19T12:39:29.882Z,12.98
2022-12-19T12:42:10.499Z,13.01
2022-12-19T12:44:45.597Z,13.00
2022-12-19T12:47:18.985Z,13.01
2022-12-19T12:49:50.267Z,13.04
2022-12-19T12:52:21.120Z,12.99
2022-12-19T12:54:50.679Z,13.09
2022-12-19T12:57:36.628Z,13.05
2022-12-19T13:00:26.225Z,13.09
2022-12-19T13:02:58.562Z,13.10
2022-12-19T13:05:42.754Z,13.13
2022-12-19T13:08:32.254Z,13.17
2022-12-19T13:11:03.425Z,13.18
2022-12-19T13:13:52.260Z,13.19
2022-12-19T13:16:51.634Z,13.19
2022-12-19T13:19:27.836Z,13.22
2022-12-19T13:22:19.582Z,13.24
2022-12-19T13:24:49.962Z,13.22
2022-12-19T13:27:35.602Z,13.25
2022-12-19T13:30:20.700Z,13.28
2022-12-19T13:33:09.398Z,13.31
2022-12-19T13:37:17.687Z,13.34
2022-12-19T13:39:48.494Z,13.23
2022-12-19T13:41:45.261Z,13.36
2022-12-19T13:44:13.059Z,13.38
2022-12-19T13:46:43.702Z,13.40
2022-12-19T13:49:16.750Z,13.40
2022-12-19T13:51:48.286Z,13.40
2022-12-19T13:54:24.674Z,13.42
2022-12-19T13:56:53.565Z,13.43
2022-12-19T13:59:23.299Z,13.39
2022-12-19T14:01:54.667Z,13.51
2022-12-19T14:04:30.715Z,13.47
2022-12-19T14:07:02.338Z,13.49
2022-12-19T14:11:26.292Z,13.53
2022-12-19T14:13:53.858Z,13.50
2022-12-19T14:15:34.517Z,13.51
2022-12-19T14:18:44.375Z,13.57
2022-12-19T14:22:11.605Z,13.55
2022-12-19T14:24:16.479Z,13.58
2022-12-19T14:28:19.380Z,13.56
2022-12-19T14:30:29.164Z,13.55
2022-12-19T14:33:39.411Z,13.55
2022-12-19T14:36:07.778Z,13.54
2022-12-19T14:39:19.620Z,13.55
2022-12-19T14:41:07.585Z,13.57
2022-12-19T14:43:59.129Z,13.55
2022-12-19T14:53:17.457Z,13.53
2022-12-19T14:54:02.816Z,13.53
2022-12-19T14:54:39.878Z,13.55
2022-12-19T14:56:19.579Z,13.54
2022-12-19T14:58:54.409Z,13.53
2022-12-19T15:01:26.505Z,13.48
2022-12-19T15:04:51.894Z,13.50
2022-12-19T15:07:06.812Z,13.50
2022-12-19T15:11:06.610Z,13.48
2022-12-19T15:14:49.150Z,13.50
2022-12-19T15:15:54.896Z,13.50
2022-12-19T15:18:26.304Z,13.47
2022-12-19T15:20:56.338Z,13.47
2022-12-19T15:23:25.046Z,13.48
2022-12-19T15:26:10.195Z,13.47
2022-12-19T15:28:41.309Z,13.50
2022-12-19T15:31:19.515Z,13.38
2022-12-19T15:34:23.444Z,13.50
2022-12-19T15:36:35.367Z,13.48
2022-12-19T15:39:04.074Z,13.48
2022-12-19T15:41:33.357Z,13.50
2022-12-19T15:44:07.283Z,13.46
2022-12-19T15:46:35.269Z,13.47
2022-12-19T15:49:03.227Z,13.44
2022-12-19T15:51:30.998Z,13.47
2022-12-19T15:54:22.208Z,13.47
2022-12-19T15:56:52.028Z,13.41
2022-12-19T15:59:36.400Z,13.07
2022-12-19T16:02:16.748Z,13.26
2022-12-19T16:04:45.523Z,13.46
2022-12-19T16:07:17.049Z,13.46
2022-12-19T16:09:44.869Z,13.49
2022-12-19T16:12:17.375Z,13.46
2022-12-19T16:14:45.944Z,13.44
2022-12-19T16:17:19.969Z,13.50
2022-12-19T16:19:47.841Z,13.50
2022-12-19T16:22:22.067Z,13.54
2022-12-19T16:24:52.682Z,13.54
2022-12-19T16:27:25.694Z,13.53
2022-12-19T16:29:54.166Z,13.56
2022-12-19T16:32:24.759Z,13.39
2022-12-19T16:34:53.141Z,13.50
2022-12-19T16:37:22.835Z,13.51
2022-12-19T16:39:54.356Z,13.60
2022-12-19T16:42:23.562Z,13.52
2022-12-19T16:44:53.672Z,13.56
2022-12-19T16:47:21.666Z,13.46
2022-12-19T16:49:49.992Z,13.53
2022-12-19T16:52:18.428Z,13.48
2022-12-19T16:54:46.390Z,13.47
2022-12-19T16:57:21.270Z,13.50
2022-12-19T16:59:51.336Z,13.58
2022-12-19T17:05:33.288Z,13.56
2022-12-19T17:08:02.031Z,13.55
2022-12-19T17:10:32.596Z,13.52
2022-12-19T17:13:03.504Z,13.55
2022-12-19T17:15:36.515Z,13.56
2022-12-19T17:18:12.086Z,13.54
2022-12-19T17:20:43.960Z,13.54
2022-12-19T17:23:15.969Z,13.50
2022-12-19T17:25:44.189Z,13.45
2022-12-19T17:28:12.907Z,13.39
2022-12-19T17:30:44.774Z,13.36
2022-12-19T17:33:15.536Z,13.40
2022-12-19T17:35:45.124Z,13.52
2022-12-19T17:38:14.700Z,13.53
2022-12-19T17:40:43.124Z,13.52
2022-12-19T17:43:11.899Z,13.34
2022-12-19T17:45:41.226Z,13.54
2022-12-19T17:48:18.570Z,13.43
2022-12-19T17:50:46.838Z,13.40
2022-12-19T17:53:15.891Z,13.50
2022-12-19T17:55:44.349Z,13.48
2022-12-19T17:58:12.271Z,13.48
2022-12-19T18:00:41.824Z,13.46
2022-12-19T18:03:20.003Z,13.45
2022-12-19T18:05:50.048Z,13.40
2022-12-19T18:08:26.073Z,13.52
2022-12-19T18:10:55.136Z,13.40
2022-12-19T18:13:23.084Z,13.32
2022-12-19T18:15:51.828Z,13.16
2022-12-19T18:18:28.139Z,13.47
2022-12-19T18:20:56.538Z,13.40
2022-12-19T18:23:25.711Z,13.41
2022-12-19T18:26:00.838Z,13.31
2022-12-19T18:28:30.245Z,13.43
2022-12-19T18:31:02.306Z,13.20
2022-12-19T18:33:39.451Z,13.40
2022-12-19T18:36:08.612Z,13.43
2022-12-19T18:38:36.872Z,13.35
2022-12-19T18:41:07.919Z,13.21
2022-12-19T18:43:36.249Z,13.51
2022-12-19T18:46:04.346Z,13.34
2022-12-19T18:48:36.864Z,13.52
2022-12-19T18:51:06.598Z,13.51
2022-12-19T18:53:36.155Z,13.36
2022-12-19T18:56:06.484Z,13.50
2022-12-19T18:58:35.056Z,13.28
2022-12-19T19:01:04.746Z,13.38
2022-12-19T19:03:36.753Z,13.37
2022-12-19T19:06:06.616Z,13.53
2022-12-19T19:08:36.194Z,13.44
2022-12-19T19:11:04.064Z,13.55
2022-12-19T19:13:34.735Z,13.40
2022-12-19T19:16:05.618Z,13.40
2022-12-19T19:18:39.752Z,13.22
2022-12-19T19:21:10.991Z,13.59
2022-12-19T19:23:42.886Z,13.37
2022-12-19T19:26:10.785Z,13.34
2022-12-19T19:28:39.443Z,13.58
2022-12-19T19:31:10.390Z,13.60
2022-12-19T19:33:47.958Z,13.41
2022-12-19T19:36:19.405Z,13.50
2022-12-19T19:38:52.681Z,13.40
2022-12-19T19:41:21.160Z,13.54
2022-12-19T19:43:49.183Z,13.52
2022-12-19T19:46:17.302Z,13.40
2022-12-19T19:48:47.449Z,13.40
2022-12-19T19:51:17.203Z,13.58
2022-12-19T19:53:45.253Z,13.36
2022-12-19T19:56:13.644Z,13.52
2022-12-19T19:58:41.668Z,13.65
2022-12-19T20:01:11.331Z,13.19
2022-12-19T20:03:41.890Z,13.48
2022-12-19T20:06:15.509Z,13.62
2022-12-19T20:08:43.545Z,13.70
2022-12-19T20:11:11.744Z,13.52
2022-12-19T20:13:39.996Z,13.68
2022-12-19T20:16:09.799Z,13.56
2022-12-19T20:18:39.487Z,13.70
2022-12-19T20:21:12.732Z,13.76
2022-12-19T20:23:44.151Z,13.81
2022-12-19T20:26:15.583Z,13.72
2022-12-19T20:28:48.960Z,13.59
2022-12-19T20:31:18.678Z,13.90
2022-12-19T20:33:47.276Z,13.86
2022-12-19T20:36:15.757Z,13.83
2022-12-19T20:38:45.089Z,13.83
2022-12-19T20:41:13.478Z,14.00
2022-12-19T20:43:41.551Z,13.67
2022-12-19T20:46:11.989Z,14.02
2022-12-19T20:48:40.676Z,14.04
2022-12-19T20:51:10.053Z,14.08
2022-12-19T20:53:40.069Z,14.09
2022-12-19T20:56:13.904Z,14.14
2022-12-19T20:58:41.950Z,14.13
2022-12-19T21:01:13.026Z,14.18
2022-12-19T21:03:41.743Z,13.93
2022-12-19T21:06:14.977Z,14.23
2022-12-19T21:08:43.530Z,14.18
2022-12-19T21:11:14.372Z,14.27
2022-12-19T21:13:42.375Z,14.00
2022-12-19T21:16:13.015Z,14.11
2022-12-19T21:18:42.543Z,14.18
2022-12-19T21:21:13.684Z,14.36
2022-12-19T21:23:42.009Z,14.37
2022-12-19T21:26:10.568Z,14.40
2022-12-19T21:28:40.334Z,14.30
2022-12-19T21:31:12.903Z,14.06
2022-12-19T21:33:41.195Z,14.43
2022-12-19T21:36:10.219Z,14.22
2022-12-19T21:38:38.661Z,14.37
2022-12-19T21:41:08.481Z,14.24
2022-12-19T21:43:37.531Z,14.36
2022-12-19T21:46:09.795Z,14.50
2022-12-19T21:48:39.429Z,14.50
2022-12-19T21:51:07.552Z,14.52
2022-12-19T21:53:36.650Z,14.50
2022-12-19T21:56:15.624Z,14.54
2022-12-19T21:58:43.618Z,14.10
2022-12-19T22:01:15.977Z,14.46
2022-12-19T22:03:44.124Z,14.40
2022-12-19T22:06:20.971Z,14.55
2022-12-19T22:08:56.150Z,14.46
2022-12-19T22:11:25.922Z,14.56
2022-12-19T22:13:54.270Z,14.52
2022-12-19T22:16:23.751Z,14.55
2022-12-19T22:18:53.520Z,14.58
2022-12-19T22:21:25.467Z,14.13
2022-12-19T22:23:54.362Z,14.57
2022-12-19T22:26:24.559Z,14.53
2022-12-19T22:28:55.467Z,14.60
2022-12-19T22:31:26.109Z,14.53
2022-12-19T22:33:59.448Z,14.39
2022-12-19T22:36:31.523Z,14.61
2022-12-19T22:39:02.445Z,14.62
2022-12-19T22:41:30.675Z,14.46
2022-12-19T22:43:58.689Z,14.61
2022-12-19T22:46:31.206Z,14.62
2022-12-19T22:49:00.888Z,14.62
2022-12-19T22:51:30.558Z,14.66
2022-12-19T22:53:59.520Z,14.66
2022-12-19T22:56:29.592Z,14.58
2022-12-19T22:59:01.500Z,14.61
2022-12-19T23:01:32.864Z,14.56
2022-12-19T23:04:02.434Z,14.68
2022-12-19T23:06:34.159Z,14.64
2022-12-19T23:09:02.770Z,14.72
2022-12-19T23:11:36.217Z,14.71
2022-12-19T23:14:06.384Z,14.31
2022-12-19T23:16:36.408Z,14.62
2022-12-19T23:19:05.624Z,14.68
2022-12-19T23:21:34.193Z,14.66
2022-12-19T23:24:02.264Z,14.30
2022-12-19T23:26:35.695Z,14.72
2022-12-19T23:29:07.975Z,14.72
2022-12-19T23:31:40.349Z,14.73
2022-12-19T23:34:08.239Z,14.75
2022-12-19T23:39:24.309Z,14.74
2022-12-19T23:41:52.637Z,14.66
2022-12-19T23:44:22.931Z,14.70
2022-12-19T23:46:59.085Z,14.69
2022-12-19T23:49:30.500Z,14.71
2022-12-19T23:51:58.846Z,14.71
2022-12-19T23:54:26.878Z,14.80
2022-12-19T23:56:57.046Z,14.76
2022-12-19T23:59:25.395Z,14.84
